Time;durP1;ratioP1;P1;durP2;ratioP2;P2;SDS_P1;SDS_P2;PMS_P1;PMS_P2;Temp;Humidity;BMP_temperature;BMP_pressure;BME280_temperature;BME280_humidity;BME280_pressure;Samples;Min_cycle;Max_cycle;Signal;HPM_P1;HPM_P2
2022/04/22 00:01:59;;;;;;;;;;;23.60;31.30;;;;;;4906842;29;20351;-72
2022/04/22 00:04:32;;;;;;;;;;;23.60;31.30;;;;;;4906208;29;19928;-71
2022/04/22 00:07:00;;;;;;;;;;;23.60;31.40;;;;;;4906934;29;19958;-71
2022/04/22 00:09:27;;;;;;;;;;;23.60;31.40;;;;;;4906484;28;20387;-70
2022/04/22 00:11:54;;;;;;;;;;;23.60;31.40;;;;;;4906157;29;19927;-71
2022/04/22 00:14:21;;;;;;;;;;;23.60;31.40;;;;;;4905644;29;20150;-71
2022/04/22 00:16:48;;;;;;;;;;;23.60;31.40;;;;;;4906434;29;20430;-71
2022/04/22 00:19:15;;;;;;;;;;;23.60;31.40;;;;;;4906295;29;20240;-71
2022/04/22 00:21:42;;;;;;;;;;;23.60;31.40;;;;;;4904856;28;19928;-71
2022/04/22 00:24:09;;;;;;;;;;;23.50;31.40;;;;;;4906340;29;20064;-76
2022/04/22 00:26:36;;;;;;;;;;;23.50;31.40;;;;;;4910444;29;20375;-75
2022/04/22 00:29:03;;;;;;;;;;;23.50;31.40;;;;;;4975206;28;20014;-75
2022/04/22 00:31:30;;;;;;;;;;;23.50;31.40;;;;;;4914018;29;19928;-75
2022/04/22 00:33:57;;;;;;;;;;;23.50;31.40;;;;;;4914439;28;19934;-75
2022/04/22 00:36:24;;;;;;;;;;;23.50;31.50;;;;;;4913230;28;19927;-75
2022/04/22 00:38:51;;;;;;;;;;;23.50;31.40;;;;;;4912566;29;19938;-75
2022/04/22 00:41:18;;;;;;;;;;;23.50;31.50;;;;;;4912281;29;19927;-75
2022/04/22 00:43:48;;;;;;;;;;;23.50;31.50;;;;;;4912204;28;20367;-75
2022/04/22 00:46:15;;;;;;;;;;;23.50;31.50;;;;;;4912155;29;19933;-75
2022/04/22 00:48:42;;;;;;;;;;;23.50;31.50;;;;;;4912184;29;20013;-75
2022/04/22 00:51:10;;;;;;;;;;;23.50;31.50;;;;;;4912647;29;19937;-75
2022/04/22 00:53:38;;;;;;;;;;;23.50;31.60;;;;;;4909157;29;19927;-75
2022/04/22 00:56:06;;;;;;;;;;;23.50;31.60;;;;;;4912743;29;19981;-75
2022/04/22 00:58:39;;;;;;;;;;;23.50;31.60;;;;;;4912690;29;20026;-75
2022/04/22 01:01:06;;;;;;;;;;;23.40;31.50;;;;;;4912201;29;19969;-76
2022/04/22 01:03:33;;;;;;;;;;;23.50;31.60;;;;;;4912555;28;19931;-75
2022/04/22 01:11:36;;;;;;;;;;;23.50;31.60;;;;;;4912300;29;19927;-75
2022/04/22 01:14:06;;;;;;;;;;;23.40;31.60;;;;;;4912350;29;20375;-75
2022/04/22 01:16:34;;;;;;;;;;;23.40;31.60;;;;;;4912082;29;20001;-75
2022/04/22 01:19:00;;;;;;;;;;;23.50;31.70;;;;;;4911778;29;19971;-75
2022/04/22 01:21:27;;;;;;;;;;;23.40;31.60;;;;;;4912932;29;19927;-75
2022/04/22 01:23:54;;;;;;;;;;;23.40;31.60;;;;;;4911999;29;20122;-75
2022/04/22 01:26:21;;;;;;;;;;;23.40;31.60;;;;;;4907945;29;19966;-75
2022/04/22 01:28:50;;;;;;;;;;;23.40;31.60;;;;;;4912024;29;19985;-75
2022/04/22 01:31:17;;;;;;;;;;;23.40;31.60;;;;;;4911711;29;20038;-75
2022/04/22 01:33:44;;;;;;;;;;;23.40;31.60;;;;;;4912197;29;20021;-75
2022/04/22 01:36:10;;;;;;;;;;;23.40;31.60;;;;;;4912259;29;20039;-75
2022/04/22 01:38:37;;;;;;;;;;;23.40;31.60;;;;;;4911927;29;19990;-75
2022/04/22 01:41:04;;;;;;;;;;;23.40;31.60;;;;;;4910923;29;19928;-75
2022/04/22 01:43:31;;;;;;;;;;;23.40;31.60;;;;;;4911339;29;19981;-76
2022/04/22 01:45:58;;;;;;;;;;;23.40;31.60;;;;;;4911980;29;19927;-75
2022/04/22 01:48:25;;;;;;;;;;;23.40;31.70;;;;;;4991914;28;20283;-75
2022/04/22 01:50:53;;;;;;;;;;;23.40;31.60;;;;;;4911852;29;19938;-75
2022/04/22 01:53:20;;;;;;;;;;;23.40;31.60;;;;;;4911314;28;20388;-75
2022/04/22 01:55:47;;;;;;;;;;;23.40;31.60;;;;;;4911811;29;19927;-75
2022/04/22 01:58:14;;;;;;;;;;;23.40;31.70;;;;;;4907285;29;19927;-76
2022/04/22 02:00:41;;;;;;;;;;;23.40;31.70;;;;;;4911275;29;20403;-76
2022/04/22 02:03:08;;;;;;;;;;;23.40;31.70;;;;;;4912230;28;20187;-76
2022/04/22 02:05:35;;;;;;;;;;;23.40;31.70;;;;;;4992366;28;20195;-76
2022/04/22 02:08:02;;;;;;;;;;;23.40;31.70;;;;;;4911879;29;20426;-75
2022/04/22 02:10:29;;;;;;;;;;;23.40;31.70;;;;;;4911209;28;19927;-75
2022/04/22 02:12:56;;;;;;;;;;;23.40;31.70;;;;;;4911120;28;20475;-75
2022/04/22 02:15:24;;;;;;;;;;;23.40;31.70;;;;;;4910274;28;19981;-75
2022/04/22 02:17:51;;;;;;;;;;;23.40;31.70;;;;;;4924035;29;19927;-75
2022/04/22 02:20:18;;;;;;;;;;;23.30;31.70;;;;;;4929752;29;19985;-76
2022/04/22 02:22:45;;;;;;;;;;;23.30;31.70;;;;;;4930559;29;19970;-75
2022/04/22 02:25:12;;;;;;;;;;;23.30;31.80;;;;;;4930239;29;19981;-75
2022/04/22 02:30:26;;;;;;;;;;;23.30;31.80;;;;;;4907168;28;20010;-75
2022/04/22 02:32:53;;;;;;;;;;;23.30;31.80;;;;;;4911544;29;19931;-75
2022/04/22 02:35:21;;;;;;;;;;;23.30;31.80;;;;;;4910670;28;20415;-75
2022/04/22 02:37:49;;;;;;;;;;;23.30;31.80;;;;;;4910448;29;19958;-75
2022/04/22 02:45:26;;;;;;;;;;;23.30;31.80;;;;;;4911206;29;20610;-76
2022/04/22 02:45:50;;;;;;;;;;;23.30;31.90;;;;;;4912451;28;19931;-76
2022/04/22 02:48:18;;;;;;;;;;;23.30;31.90;;;;;;4911866;29;19927;-76
2022/04/22 02:50:45;;;;;;;;;;;23.30;31.90;;;;;;4912102;28;20050;-75
2022/04/22 02:53:11;;;;;;;;;;;23.30;31.90;;;;;;4991967;28;19974;-76
2022/04/22 02:55:41;;;;;;;;;;;23.30;31.90;;;;;;4910484;29;20033;-76
2022/04/22 02:58:08;;;;;;;;;;;23.30;31.90;;;;;;4910588;29;19927;-76
2022/04/22 03:00:35;;;;;;;;;;;23.30;31.90;;;;;;4905733;29;20338;-75
2022/04/22 03:03:02;;;;;;;;;;;23.20;31.90;;;;;;4910826;29;19927;-75
2022/04/22 03:05:29;;;;;;;;;;;23.30;31.90;;;;;;4909888;29;19974;-76
2022/04/22 03:07:56;;;;;;;;;;;23.20;31.90;;;;;;4910906;28;20010;-75
2022/04/22 03:10:23;;;;;;;;;;;23.30;32.00;;;;;;4910572;28;20219;-76
2022/04/22 03:12:50;;;;;;;;;;;23.20;32.00;;;;;;4910995;29;20009;-76
2022/04/22 03:15:17;;;;;;;;;;;23.20;32.00;;;;;;4910908;29;19969;-76
2022/04/22 03:17:44;;;;;;;;;;;23.20;31.90;;;;;;4910436;29;20003;-75
2022/04/22 03:20:11;;;;;;;;;;;23.20;32.00;;;;;;4910577;28;19971;-76
2022/04/22 03:22:38;;;;;;;;;;;23.30;32.00;;;;;;4912515;28;20274;-76
2022/04/22 03:25:05;;;;;;;;;;;23.20;32.00;;;;;;4928879;28;20108;-76
2022/04/22 03:27:32;;;;;;;;;;;23.20;32.00;;;;;;4929358;28;19998;-76
2022/04/22 03:30:02;;;;;;;;;;;23.20;32.00;;;;;;4929333;28;19927;-76
2022/04/22 03:32:29;;;;;;;;;;;23.30;32.10;;;;;;4922433;28;19930;-76
2022/04/22 03:34:56;;;;;;;;;;;23.30;32.10;;;;;;4929182;28;20295;-76
2022/04/22 03:37:23;;;;;;;;;;;23.30;32.10;;;;;;4927231;28;19953;-75
2022/04/22 03:39:50;;;;;;;;;;;23.30;32.10;;;;;;4919294;29;19982;-76
2022/04/22 03:42:17;;;;;;;;;;;23.20;32.00;;;;;;4924699;29;20552;-76
2022/04/22 03:44:44;;;;;;;;;;;23.30;32.10;;;;;;4928060;29;20180;-75
2022/04/22 03:47:11;;;;;;;;;;;23.30;32.10;;;;;;4924534;29;19989;-76
2022/04/22 03:49:38;;;;;;;;;;;23.30;32.10;;;;;;4911128;29;20017;-76
2022/04/22 03:52:05;;;;;;;;;;;23.30;32.10;;;;;;4910187;29;19936;-76
2022/04/22 03:54:32;;;;;;;;;;;23.30;32.10;;;;;;4908667;29;19927;-76
2022/04/22 03:59:47;;;;;;;;;;;23.30;32.10;;;;;;4907593;29;20148;-77
2022/04/22 04:02:14;;;;;;;;;;;23.30;32.10;;;;;;4906415;29;19928;-76
2022/04/22 04:04:41;;;;;;;;;;;23.30;32.10;;;;;;4909689;29;19950;-76
2022/04/22 04:07:08;;;;;;;;;;;23.20;32.10;;;;;;4932260;29;20013;-76
2022/04/22 04:17:55;;;;;;;;;;;23.20;32.10;;;;;;4931221;29;20375;-75
2022/04/22 04:23:15;;;;;;;;;;;23.20;32.10;;;;;;4932342;28;19927;-76
2022/04/22 04:25:43;;;;;;;;;;;23.20;32.20;;;;;;4931972;28;19973;-76
2022/04/22 04:28:10;;;;;;;;;;;23.20;32.20;;;;;;4930933;29;19971;-76
2022/04/22 04:30:38;;;;;;;;;;;23.20;32.20;;;;;;4922558;28;19981;-75
2022/04/22 04:33:05;;;;;;;;;;;23.20;32.80;;;;;;4912760;29;19931;-75
2022/04/22 04:35:34;;;;;;;;;;;23.20;32.20;;;;;;4907722;29;20038;-75
2022/04/22 04:38:02;;;;;;;;;;;23.20;32.20;;;;;;4912642;29;19935;-75
2022/04/22 04:40:29;;;;;;;;;;;23.20;32.30;;;;;;4916608;29;19931;-75
2022/04/22 04:42:56;;;;;;;;;;;23.20;32.30;;;;;;4930331;29;19930;-75
2022/04/22 04:45:23;;;;;;;;;;;23.20;32.30;;;;;;4931733;28;20022;-75
2022/04/22 04:47:50;;;;;;;;;;;23.20;32.30;;;;;;4931193;28;19927;-76
2022/04/22 04:50:17;;;;;;;;;;;23.20;32.30;;;;;;4929855;29;20445;-76
2022/04/22 04:52:44;;;;;;;;;;;23.20;32.30;;;;;;4931178;28;19926;-75
2022/04/22 04:55:13;;;;;;;;;;;23.20;32.40;;;;;;4931429;28;20013;-75
2022/04/22 04:57:41;;;;;;;;;;;23.20;32.30;;;;;;4931466;28;20191;-75
2022/04/22 05:00:15;;;;;;;;;;;23.20;32.40;;;;;;4931712;28;19993;-75
2022/04/22 05:02:42;;;;;;;;;;;23.20;32.40;;;;;;4993084;28;20025;-74
2022/04/22 05:05:10;;;;;;;;;;;23.20;32.40;;;;;;4928921;28;19934;-75
2022/04/22 05:07:53;;;;;;;;;;;23.20;32.40;;;;;;4920214;28;19927;-75
2022/04/22 05:10:20;;;;;;;;;;;23.20;32.60;;;;;;4938694;28;19981;-75
2022/04/22 05:13:10;;;;;;;;;;;23.20;32.70;;;;;;4945474;28;20592;-74
2022/04/22 05:15:39;;;;;;;;;;;23.20;32.80;;;;;;4936403;28;20025;-73
2022/04/22 05:25:00;;;;;;;;;;;23.20;32.80;;;;;;4938805;29;19926;-68
2022/04/22 05:34:13;;;;;;;;;;;23.30;33.60;;;;;;4956063;28;19981;-74
2022/04/22 05:44:11;;;;;;;;;;;23.40;34.20;;;;;;4926583;28;20198;-70
2022/04/22 05:46:37;;;;;;;;;;;23.40;34.60;;;;;;4936234;29;19927;-70
2022/04/22 05:49:04;;;;;;;;;;;23.40;34.60;;;;;;4938498;29;19927;-75
2022/04/22 05:55:12;;;;;;;;;;;23.50;34.40;;;;;;4937468;29;20369;-76
2022/04/22 05:57:39;;;;;;;;;;;23.50;34.70;;;;;;4936427;29;19927;-72
2022/04/22 06:00:08;;;;;;;;;;;23.50;34.90;;;;;;4937118;29;19927;-73
2022/04/22 06:02:35;;;;;;;;;;;23.50;35.00;;;;;;4938545;28;20264;-72
2022/04/22 06:05:02;;;;;;;;;;;23.60;35.00;;;;;;4937364;29;19926;-72
2022/04/22 06:07:30;;;;;;;;;;;23.60;35.10;;;;;;4938274;28;19993;-70
2022/04/22 06:12:44;;;;;;;;;;;23.70;35.20;;;;;;4936906;29;20289;-73
2022/04/22 06:15:11;;;;;;;;;;;23.70;35.00;;;;;;4936742;29;19982;-71
2022/04/22 06:17:38;;;;;;;;;;;23.80;34.80;;;;;;4936988;29;19978;-75
2022/04/22 06:20:05;;;;;;;;;;;23.80;34.70;;;;;;4937187;29;19934;-75
2022/04/22 06:22:32;;;;;;;;;;;23.80;34.60;;;;;;4937106;29;19981;-76
2022/04/22 06:24:59;;;;;;;;;;;23.80;34.60;;;;;;4938383;29;19981;-76
2022/04/22 06:27:27;;;;;;;;;;;23.90;34.60;;;;;;4937047;29;20378;-70
2022/04/22 06:29:54;;;;;;;;;;;23.80;34.80;;;;;;4938709;29;19934;-74
2022/04/22 06:32:22;;;;;;;;;;;23.90;35.00;;;;;;4937553;29;20378;-74
2022/04/22 06:34:50;;;;;;;;;;;24.00;35.30;;;;;;4937152;28;19970;-74
2022/04/22 06:37:44;;;;;;;;;;;24.00;35.30;;;;;;4937183;29;20014;-78
2022/04/22 06:46:25;;;;;;;;;;;24.10;35.50;;;;;;4937680;29;19927;-81
2022/04/22 06:48:57;;;;;;;;;;;24.20;35.60;;;;;;4934395;28;19980;-74
2022/04/22 06:51:25;;;;;;;;;;;24.20;35.40;;;;;;4927615;29;20026;-74
2022/04/22 07:01:23;;;;;;;;;;;24.30;35.30;;;;;;5433015;23;19920;-74
2022/04/22 07:04:10;;;;;;;;;;;24.40;35.40;;;;;;4936345;29;20337;-70
2022/04/22 07:06:38;;;;;;;;;;;24.40;35.40;;;;;;4937226;29;20013;-69
2022/04/22 07:09:05;;;;;;;;;;;24.40;35.60;;;;;;4935987;28;19981;-68
2022/04/22 07:11:34;;;;;;;;;;;24.40;35.60;;;;;;4936088;29;19974;-70
2022/04/22 07:14:01;;;;;;;;;;;24.50;35.50;;;;;;4936549;29;19989;-74
2022/04/22 07:16:29;;;;;;;;;;;24.50;35.50;;;;;;4936210;29;19973;-68
2022/04/22 07:18:57;;;;;;;;;;;24.50;35.50;;;;;;4936492;29;19926;-72
2022/04/22 07:21:25;;;;;;;;;;;24.50;35.30;;;;;;4936715;29;19927;-71
2022/04/22 07:23:52;;;;;;;;;;;24.50;35.20;;;;;;4936565;29;19990;-67
2022/04/22 07:40:43;;;;;;;;;;;24.60;36.10;;;;;;4914598;29;19938;-65
2022/04/22 07:48:44;;;;;;;;;;;24.70;36.00;;;;;;4899098;29;19931;-68
2022/04/22 07:51:11;;;;;;;;;;;24.70;36.00;;;;;;4899054;28;19927;-72
2022/04/22 07:53:38;;;;;;;;;;;24.70;36.20;;;;;;4899077;28;19971;-67
2022/04/22 07:56:06;;;;;;;;;;;24.80;36.30;;;;;;4898441;29;19927;-73
2022/04/22 07:58:33;;;;;;;;;;;24.80;36.20;;;;;;4898599;29;20292;-71
2022/04/22 08:01:00;;;;;;;;;;;24.80;36.40;;;;;;4897838;29;19994;-64
2022/04/22 08:03:27;;;;;;;;;;;24.90;36.40;;;;;;4904127;28;19971;-70
2022/04/22 08:05:54;;;;;;;;;;;24.90;36.30;;;;;;4917025;29;20392;-70
2022/04/22 08:08:21;;;;;;;;;;;24.90;36.00;;;;;;4999269;28;20296;-66
2022/04/22 08:10:48;;;;;;;;;;;25.00;36.00;;;;;;4917491;29;19927;-64
2022/04/22 08:13:15;;;;;;;;;;;25.00;36.00;;;;;;4917576;29;19927;-67
2022/04/22 08:15:42;;;;;;;;;;;25.10;36.00;;;;;;4917491;29;19927;-64
2022/04/22 08:18:10;;;;;;;;;;;25.10;35.90;;;;;;4916569;29;20030;-62
2022/04/22 08:20:37;;;;;;;;;;;25.20;35.90;;;;;;4917119;29;19958;-66
2022/04/22 08:23:04;;;;;;;;;;;25.20;35.60;;;;;;4917495;29;20014;-68
2022/04/22 08:25:31;;;;;;;;;;;25.30;35.60;;;;;;4917255;29;20015;-65
2022/04/22 08:27:59;;;;;;;;;;;25.30;35.50;;;;;;4916665;29;20367;-66
2022/04/22 08:30:26;;;;;;;;;;;25.30;35.30;;;;;;4917069;29;20514;-72
2022/04/22 08:32:53;;;;;;;;;;;25.40;35.40;;;;;;4917206;29;20298;-68
2022/04/22 08:35:20;;;;;;;;;;;25.40;35.30;;;;;;4916725;29;19927;-72
2022/04/22 08:37:47;;;;;;;;;;;25.40;35.10;;;;;;4916459;29;19998;-67
2022/04/22 08:40:14;;;;;;;;;;;25.50;35.10;;;;;;4917775;29;20379;-66
2022/04/22 08:42:43;;;;;;;;;;;25.50;35.10;;;;;;4916745;29;19977;-67
2022/04/22 08:45:10;;;;;;;;;;;25.60;35.00;;;;;;4917024;29;20367;-68
2022/04/22 08:50:31;;;;;;;;;;;25.70;34.80;;;;;;4918306;29;20368;-73
2022/04/22 08:53:03;;;;;;;;;;;25.70;34.60;;;;;;4920087;29;19958;-66
2022/04/22 08:55:32;;;;;;;;;;;25.80;34.60;;;;;;4919553;29;19986;-66
2022/04/22 08:57:59;;;;;;;;;;;25.90;34.50;;;;;;4919552;29;20327;-69
2022/04/22 09:03:38;;;;;;;;;;;26.00;34.30;;;;;;4900380;29;19934;-67
2022/04/22 09:06:06;;;;;;;;;;;26.00;34.20;;;;;;4900671;29;19927;-74
2022/04/22 09:08:33;;;;;;;;;;;26.10;34.10;;;;;;4901230;29;19928;-71
2022/04/22 09:11:02;;;;;;;;;;;26.10;34.20;;;;;;4901483;29;19931;-72
2022/04/22 09:13:30;;;;;;;;;;;26.10;34.10;;;;;;4980484;28;19927;-68
2022/04/22 09:15:58;;;;;;;;;;;26.10;34.10;;;;;;4900684;29;19974;-70
2022/04/22 09:21:34;;;;;;;;;;;26.20;34.20;;;;;;5525563;23;19934;-69
2022/04/22 09:24:13;;;;;;;;;;;26.20;34.20;;;;;;4937961;29;19927;-68
2022/04/22 09:26:40;;;;;;;;;;;26.20;34.20;;;;;;4938679;29;19992;-73
2022/04/22 09:29:10;;;;;;;;;;;26.30;34.50;;;;;;4938802;29;19969;-72
2022/04/22 09:31:47;;;;;;;;;;;26.30;35.50;;;;;;4938641;29;19927;-70
2022/04/22 09:34:14;;;;;;;;;;;26.30;35.20;;;;;;4938372;29;19955;-73
2022/04/22 09:42:47;;;;;;;;;;;26.30;35.30;;;;;;4938050;28;20014;-72
2022/04/22 09:45:35;;;;;;;;;;;26.30;34.90;;;;;;4942888;28;19930;-66
2022/04/22 09:55:15;;;;;;;;;;;26.50;34.80;;;;;;4938434;29;19918;-67
2022/04/22 09:57:49;;;;;;;;;;;26.50;34.60;;;;;;4937786;28;20422;-69
2022/04/22 10:00:17;;;;;;;;;;;26.60;34.60;;;;;;4938065;29;19973;-71
2022/04/22 10:02:46;;;;;;;;;;;26.60;34.40;;;;;;4936758;28;19981;-71
2022/04/22 10:05:13;;;;;;;;;;;26.70;34.40;;;;;;4936184;28;19959;-67
2022/04/22 10:07:52;;;;;;;;;;;26.70;34.10;;;;;;4940012;28;19923;-75
2022/04/22 10:10:23;;;;;;;;;;;26.70;34.10;;;;;;4927961;29;19981;-66
2022/04/22 10:12:52;;;;;;;;;;;26.80;34.00;;;;;;4937479;29;19966;-72
2022/04/22 10:15:19;;;;;;;;;;;26.80;33.90;;;;;;4937722;29;19934;-72
2022/04/22 10:17:47;;;;;;;;;;;26.80;33.90;;;;;;4938181;28;19927;-73
2022/04/22 10:20:14;;;;;;;;;;;26.80;33.90;;;;;;4939428;29;19959;-72
2022/04/22 10:22:41;;;;;;;;;;;26.80;33.90;;;;;;4937827;29;19927;-71
2022/04/22 10:25:09;;;;;;;;;;;26.80;33.90;;;;;;4938118;29;19973;-71
2022/04/22 10:27:37;;;;;;;;;;;26.80;33.90;;;;;;4936729;28;19926;-74
2022/04/22 10:30:06;;;;;;;;;;;26.90;33.90;;;;;;4937511;29;20042;-74
2022/04/22 10:36:05;;;;;;;;;;;26.90;33.80;;;;;;4931469;28;19922;-70
2022/04/22 10:38:33;;;;;;;;;;;26.90;33.70;;;;;;4937335;29;20335;-71
2022/04/22 10:41:01;;;;;;;;;;;26.90;33.70;;;;;;4936750;29;19930;-71
2022/04/22 10:43:29;;;;;;;;;;;26.90;33.60;;;;;;4933361;28;19935;-78
2022/04/22 10:49:18;;;;;;;;;;;27.00;33.50;;;;;;4934041;28;19925;-82
2022/04/22 10:57:42;;;;;;;;;;;27.20;33.80;;;;;;4897311;29;19927;-72
2022/04/22 11:00:28;;;;;;;;;;;27.30;33.80;;;;;;4898916;29;19959;-70
2022/04/22 11:02:59;;;;;;;;;;;27.30;33.70;;;;;;4899633;29;20335;-70
2022/04/22 11:05:36;;;;;;;;;;;27.30;33.60;;;;;;4899013;29;19939;-73
2022/04/22 11:08:07;;;;;;;;;;;27.30;33.60;;;;;;4899661;28;20364;-71
2022/04/22 11:10:53;;;;;;;;;;;27.20;33.80;;;;;;4900295;29;19959;-72
2022/04/22 11:13:29;;;;;;;;;;;27.20;34.20;;;;;;4900643;29;20031;-76
2022/04/22 11:15:56;;;;;;;;;;;27.20;34.50;;;;;;4900433;29;19955;-73
2022/04/22 11:18:24;;;;;;;;;;;27.20;34.80;;;;;;4900407;28;19934;-71
2022/04/22 11:21:02;;;;;;;;;;;27.20;34.90;;;;;;4900232;29;19974;-70
2022/04/22 11:26:42;;;;;;;;;;;27.10;35.20;;;;;;4899535;28;20283;-71
2022/04/22 11:29:10;;;;;;;;;;;27.10;35.10;;;;;;4899705;29;19935;-75
2022/04/22 11:31:38;;;;;;;;;;;27.10;35.20;;;;;;4899138;29;19963;-73
2022/04/22 11:37:17;;;;;;;;;;;27.10;35.10;;;;;;5165090;23;19972;-71
2022/04/22 11:43:18;;;;;;;;;;;27.10;35.10;;;;;;4955097;28;19917;-69
2022/04/22 11:49:33;;;;;;;;;;;27.10;35.40;;;;;;4937331;29;20006;-71
2022/04/22 11:52:34;;;;;;;;;;;27.10;35.20;;;;;;4948480;29;19949;-71
2022/04/22 11:55:16;;;;;;;;;;;27.10;35.30;;;;;;4952191;29;19934;-76
2022/04/22 11:57:43;;;;;;;;;;;27.10;35.40;;;;;;4956448;28;20680;-70
2022/04/22 12:06:30;;;;;;;;;;;27.20;35.60;;;;;;4936593;29;19974;-66
2022/04/22 12:09:00;;;;;;;;;;;27.30;35.60;;;;;;4941283;29;19929;-71
2022/04/22 12:11:28;;;;;;;;;;;27.30;35.60;;;;;;4948551;29;19926;-71
2022/04/22 12:13:56;;;;;;;;;;;27.30;35.60;;;;;;4949536;28;19958;-72
2022/04/22 12:19:54;;;;;;;;;;;27.20;35.70;;;;;;4939852;29;19927;-67
2022/04/22 12:22:32;;;;;;;;;;;27.20;35.80;;;;;;4940200;29;19973;-70
2022/04/22 12:25:10;;;;;;;;;;;27.20;35.80;;;;;;4933223;29;20578;-65
2022/04/22 12:27:38;;;;;;;;;;;27.10;35.90;;;;;;4950984;28;19973;-65
2022/04/22 12:33:55;;;;;;;;;;;27.00;36.30;;;;;;4958311;29;19922;-71
2022/04/22 12:36:22;;;;;;;;;;;27.00;36.20;;;;;;4958992;29;20393;-68
2022/04/22 12:38:49;;;;;;;;;;;27.00;36.40;;;;;;4958570;29;19933;-72
2022/04/22 12:41:18;;;;;;;;;;;27.00;36.60;;;;;;4958344;28;19973;-70
2022/04/22 12:43:48;;;;;;;;;;;27.00;36.80;;;;;;4958692;28;19976;-68
2022/04/22 12:52:12;;;;;;;;;;;27.00;37.30;;;;;;4958499;28;20022;-68
2022/04/22 12:54:40;;;;;;;;;;;27.00;37.40;;;;;;4955209;29;20367;-67
2022/04/22 12:57:19;;;;;;;;;;;27.00;37.50;;;;;;4944278;28;20001;-70
2022/04/22 12:59:49;;;;;;;;;;;27.00;37.50;;;;;;4939065;29;19934;-70
2022/04/22 13:02:16;;;;;;;;;;;27.00;37.70;;;;;;4943826;28;19935;-68
2022/04/22 13:04:51;;;;;;;;;;;26.90;37.90;;;;;;4943926;28;19930;-69
2022/04/22 13:07:18;;;;;;;;;;;27.00;38.00;;;;;;4943179;28;19945;-70
2022/04/22 13:09:46;;;;;;;;;;;27.00;37.90;;;;;;4939817;29;20447;-64
2022/04/22 13:12:13;;;;;;;;;;;27.00;38.10;;;;;;4949813;28;19981;-69
2022/04/22 13:14:41;;;;;;;;;;;27.00;38.40;;;;;;4941303;28;19926;-68
2022/04/22 13:17:18;;;;;;;;;;;27.00;39.10;;;;;;4958034;29;19962;-66
2022/04/22 13:19:45;;;;;;;;;;;27.00;38.30;;;;;;4957554;29;20026;-68
2022/04/22 13:22:12;;;;;;;;;;;27.00;37.80;;;;;;4956929;28;19962;-66
2022/04/22 13:24:41;;;;;;;;;;;27.00;37.60;;;;;;4957821;29;19969;-66
2022/04/22 13:27:08;;;;;;;;;;;27.00;37.60;;;;;;4958056;28;19926;-65
2022/04/22 13:29:35;;;;;;;;;;;27.00;37.50;;;;;;4957479;29;19980;-66
2022/04/22 13:32:03;;;;;;;;;;;26.90;37.50;;;;;;4958079;29;20357;-66
2022/04/22 13:34:30;;;;;;;;;;;26.90;37.60;;;;;;4957982;28;19930;-67
2022/04/22 13:36:57;;;;;;;;;;;26.80;37.70;;;;;;4957919;29;19926;-67
2022/04/22 13:39:24;;;;;;;;;;;26.70;37.70;;;;;;4956966;29;19926;-66
2022/04/22 13:41:51;;;;;;;;;;;26.70;37.80;;;;;;4958681;29;20292;-67
2022/04/22 13:52:21;;;;;;;;;;;26.60;37.80;;;;;;4958435;29;20367;-67
2022/04/22 13:52:39;;;;;;;;;;;26.50;38.10;;;;;;4958414;29;19973;-68
2022/04/22 13:55:06;;;;;;;;;;;26.50;38.10;;;;;;4958469;29;19950;-67
2022/04/22 13:57:33;;;;;;;;;;;26.40;38.10;;;;;;4958192;29;19927;-67
2022/04/22 14:00:00;;;;;;;;;;;26.40;38.10;;;;;;4957291;28;19978;-67
2022/04/22 14:02:27;;;;;;;;;;;26.40;38.20;;;;;;4958321;29;20365;-67
2022/04/22 14:04:57;;;;;;;;;;;26.40;38.20;;;;;;4957941;29;19934;-67
2022/04/22 14:07:24;;;;;;;;;;;26.40;38.30;;;;;;4956903;29;20405;-67
2022/04/22 14:09:51;;;;;;;;;;;26.40;38.40;;;;;;4958055;29;19949;-67
2022/04/22 14:12:18;;;;;;;;;;;26.30;38.40;;;;;;4957933;29;20394;-67
2022/04/22 14:14:46;;;;;;;;;;;26.30;38.50;;;;;;4957819;29;19926;-67
2022/04/22 14:17:14;;;;;;;;;;;26.20;38.50;;;;;;4958116;29;19988;-67
2022/04/22 14:19:41;;;;;;;;;;;26.20;38.50;;;;;;4957636;29;19927;-67
2022/04/22 14:22:08;;;;;;;;;;;26.20;38.60;;;;;;4957820;29;20382;-67
2022/04/22 14:24:35;;;;;;;;;;;26.10;38.60;;;;;;4957937;29;19949;-67
2022/04/22 14:27:05;;;;;;;;;;;26.10;38.60;;;;;;4958010;29;19927;-67
2022/04/22 14:29:33;;;;;;;;;;;26.10;38.80;;;;;;4958002;29;20384;-67
2022/04/22 14:32:01;;;;;;;;;;;26.00;38.70;;;;;;4940951;28;19934;-67
2022/04/22 14:34:29;;;;;;;;;;;26.00;38.80;;;;;;4957513;29;19934;-67
2022/04/22 14:36:56;;;;;;;;;;;25.90;38.80;;;;;;4957565;29;20449;-67
2022/04/22 14:39:23;;;;;;;;;;;25.90;38.80;;;;;;4959804;29;20272;-67
2022/04/22 14:41:50;;;;;;;;;;;25.80;38.80;;;;;;4960399;29;19926;-67
2022/04/22 14:44:18;;;;;;;;;;;25.80;38.80;;;;;;4960460;29;19980;-67
2022/04/22 14:46:45;;;;;;;;;;;25.80;38.80;;;;;;4960028;29;19957;-68
2022/04/22 14:49:14;;;;;;;;;;;25.80;38.80;;;;;;4956282;28;19941;-67
2022/04/22 14:51:43;;;;;;;;;;;25.80;38.80;;;;;;4940189;28;19933;-67
2022/04/22 14:54:11;;;;;;;;;;;25.70;38.80;;;;;;4957093;28;19973;-67
2022/04/22 14:56:38;;;;;;;;;;;25.70;38.80;;;;;;4957420;29;19949;-67
2022/04/22 14:59:12;;;;;;;;;;;25.70;38.80;;;;;;4957170;28;19934;-67
2022/04/22 15:01:39;;;;;;;;;;;25.70;38.80;;;;;;4957308;29;19927;-67
2022/04/22 15:04:06;;;;;;;;;;;25.60;38.70;;;;;;4957189;29;19927;-66
2022/04/22 15:06:35;;;;;;;;;;;25.60;38.80;;;;;;4956967;29;19931;-67
2022/04/22 15:09:03;;;;;;;;;;;25.50;38.80;;;;;;4957369;28;20033;-66
2022/04/22 15:11:30;;;;;;;;;;;25.50;38.90;;;;;;4940559;29;19981;-67
2022/04/22 15:13:59;;;;;;;;;;;25.50;38.90;;;;;;4957051;29;19962;-67
2022/04/22 15:16:27;;;;;;;;;;;25.40;38.90;;;;;;4956983;29;20375;-67
2022/04/22 15:24:28;;;;;;;;;;;25.30;39.00;;;;;;4957228;29;19934;-67
2022/04/22 15:26:58;;;;;;;;;;;25.30;39.00;;;;;;4956952;29;19926;-67
2022/04/22 15:29:26;;;;;;;;;;;25.20;39.00;;;;;;4957130;28;19948;-67
2022/04/22 15:31:58;;;;;;;;;;;25.20;39.10;;;;;;4956675;29;20367;-67
2022/04/22 15:34:25;;;;;;;;;;;25.20;39.10;;;;;;4957108;28;19927;-67
2022/04/22 15:36:52;;;;;;;;;;;25.10;39.10;;;;;;4956591;29;20347;-67
2022/04/22 15:39:20;;;;;;;;;;;25.10;39.20;;;;;;4956585;28;20033;-67
2022/04/22 15:41:47;;;;;;;;;;;25.10;39.20;;;;;;4939920;29;19969;-67
2022/04/22 15:44:23;;;;;;;;;;;25.00;39.20;;;;;;4955396;28;19934;-67
2022/04/22 15:46:51;;;;;;;;;;;25.00;39.30;;;;;;4957489;28;20013;-67
2022/04/22 15:49:17;;;;;;;;;;;25.00;39.30;;;;;;4956573;29;19933;-67
2022/04/22 15:51:44;;;;;;;;;;;24.90;39.30;;;;;;4956487;29;19968;-67
2022/04/22 15:54:11;;;;;;;;;;;24.90;39.40;;;;;;4956488;29;20382;-67
2022/04/22 15:56:38;;;;;;;;;;;24.90;39.40;;;;;;4956694;28;19926;-67
2022/04/22 15:59:05;;;;;;;;;;;24.90;39.50;;;;;;4955824;28;19981;-67
2022/04/22 16:01:36;;;;;;;;;;;24.90;39.50;;;;;;4955956;29;19983;-67
2022/04/22 16:04:04;;;;;;;;;;;24.90;39.50;;;;;;4956132;28;19930;-67
2022/04/22 16:06:31;;;;;;;;;;;24.90;39.50;;;;;;4956255;28;19930;-67
2022/04/22 16:08:58;;;;;;;;;;;24.80;39.40;;;;;;4956362;29;19927;-67
2022/04/22 16:17:02;;;;;;;;;;;24.80;39.50;;;;;;4956082;29;19973;-67
2022/04/22 16:19:30;;;;;;;;;;;24.80;39.50;;;;;;4956200;28;19957;-67
2022/04/22 16:21:57;;;;;;;;;;;24.70;39.50;;;;;;4955971;29;19927;-67
2022/04/22 16:24:24;;;;;;;;;;;24.70;39.50;;;;;;4956025;29;20025;-67
2022/04/22 16:26:51;;;;;;;;;;;24.70;39.50;;;;;;4956026;29;19949;-67
2022/04/22 16:29:19;;;;;;;;;;;24.70;39.50;;;;;;4956126;29;19927;-67
2022/04/22 16:31:46;;;;;;;;;;;24.60;39.50;;;;;;4956243;29;20314;-67
2022/04/22 16:34:14;;;;;;;;;;;24.60;39.50;;;;;;4955787;29;20298;-67
2022/04/22 16:36:41;;;;;;;;;;;24.60;39.50;;;;;;4955811;28;19927;-67
2022/04/22 16:39:11;;;;;;;;;;;24.60;39.50;;;;;;4955660;28;19978;-67
2022/04/22 16:41:38;;;;;;;;;;;24.60;39.60;;;;;;4955879;29;19926;-67
2022/04/22 16:44:05;;;;;;;;;;;24.60;39.60;;;;;;4955724;29;20444;-67
2022/04/22 16:46:32;;;;;;;;;;;24.60;39.50;;;;;;4956167;29;20359;-67
2022/04/22 16:48:59;;;;;;;;;;;24.60;39.50;;;;;;4955920;29;19972;-67
2022/04/22 16:51:27;;;;;;;;;;;24.60;39.50;;;;;;4955862;29;19926;-67
2022/04/22 16:53:54;;;;;;;;;;;24.60;39.50;;;;;;4955208;29;19936;-67
2022/04/22 16:56:23;;;;;;;;;;;24.60;39.50;;;;;;4956468;29;20375;-67
2022/04/22 16:58:51;;;;;;;;;;;24.50;39.40;;;;;;4957385;29;19926;-67
2022/04/22 17:01:18;;;;;;;;;;;24.60;39.40;;;;;;4957346;29;19927;-67
2022/04/22 17:03:45;;;;;;;;;;;24.50;39.30;;;;;;4957080;29;19993;-67
2022/04/22 17:06:12;;;;;;;;;;;24.50;39.30;;;;;;4956904;29;19980;-67
2022/04/22 17:08:42;;;;;;;;;;;24.50;39.50;;;;;;4956054;29;20379;-67
2022/04/22 17:11:09;;;;;;;;;;;24.50;39.40;;;;;;4956176;28;20295;-67
2022/04/22 17:13:36;;;;;;;;;;;24.50;39.40;;;;;;4958748;29;19934;-67
2022/04/22 17:24:25;;;;;;;;;;;24.40;39.40;;;;;;4958761;29;20021;-67